createdAt,value
2022-10-23T00:03:01.734Z,1.20
2022-10-23T00:06:04.972Z,0.80
2022-10-23T00:09:08.994Z,0.13
2022-10-23T00:12:10.885Z,0.90
2022-10-23T00:15:13.269Z,0.40
2022-10-23T00:18:15.222Z,0.93
2022-10-23T00:21:17.671Z,0.60
2022-10-23T00:24:19.582Z,0.98
2022-10-23T00:27:21.531Z,0.45
2022-10-23T00:30:23.445Z,0.65
2022-10-23T00:33:25.286Z,0.93
2022-10-23T00:36:27.911Z,0.22
2022-10-23T00:39:30.333Z,1.23
2022-10-23T00:42:32.176Z,0.90
2022-10-23T00:45:34.704Z,0.50
2022-10-23T00:48:37.204Z,0.50
2022-10-23T00:51:48.854Z,0.90
2022-10-23T00:54:50.985Z,0.47
2022-10-23T00:57:53.582Z,0.52
2022-10-23T01:00:56.972Z,0.52
2022-10-23T01:03:59.342Z,0.90
2022-10-23T01:07:25.941Z,0.40
2022-10-23T01:10:34.918Z,0.45
2022-10-23T01:13:46.899Z,0.43
2022-10-23T01:17:10.245Z,0.30
2022-10-23T01:20:31.736Z,0.70
2022-10-23T01:24:11.374Z,0.95
2022-10-23T01:27:33.187Z,0.38
2022-10-23T01:30:39.503Z,0.37
2022-10-23T01:33:48.057Z,0.57
2022-10-23T01:36:58.703Z,0.43
2022-10-23T01:40:04.229Z,0.82
2022-10-23T01:43:12.893Z,0.90
2022-10-23T01:46:17.502Z,0.75
2022-10-23T01:49:20.780Z,0.32
2022-10-23T01:52:28.130Z,1.07
2022-10-23T01:55:32.524Z,0.30
2022-10-23T01:58:39.810Z,0.20
2022-10-23T02:01:45.625Z,0.95
2022-10-23T02:04:55.324Z,0.20
2022-10-23T02:07:58.518Z,0.28
2022-10-23T02:11:09.562Z,0.60
2022-10-23T02:14:28.728Z,0.52
2022-10-23T02:18:12.005Z,0.50
2022-10-23T02:21:18.171Z,0.57
2022-10-23T02:24:45.630Z,0.35
2022-10-23T02:27:53.057Z,0.70
2022-10-23T02:31:00.464Z,0.57
2022-10-23T02:34:02.908Z,0.52
2022-10-23T02:37:04.812Z,0.35
2022-10-23T02:40:08.984Z,0.57
2022-10-23T02:43:41.245Z,0.63
2022-10-23T02:47:20.231Z,0.65
2022-10-23T02:50:46.998Z,0.50
2022-10-23T02:54:01.399Z,1.23
2022-10-23T02:57:15.896Z,0.85
2022-10-23T03:00:22.443Z,0.47
2022-10-23T03:03:32.720Z,1.23
2022-10-23T03:06:34.832Z,1.13
2022-10-23T03:09:37.241Z,0.52
2022-10-23T03:12:39.747Z,1.00
2022-10-23T03:15:43.257Z,0.68
2022-10-23T03:18:48.711Z,0.33
2022-10-23T03:21:50.614Z,0.43
2022-10-23T03:24:52.951Z,0.20
2022-10-23T03:27:54.947Z,0.63
2022-10-23T03:30:57.702Z,1.20
2022-10-23T03:34:03.101Z,0.40
2022-10-23T03:37:08.398Z,0.63
2022-10-23T03:40:10.826Z,0.68
2022-10-23T03:43:13.384Z,0.40
2022-10-23T03:46:16.058Z,0.63
2022-10-23T03:49:17.943Z,1.15
2022-10-23T03:52:19.994Z,0.70
2022-10-23T03:55:21.946Z,0.57
2022-10-23T03:58:24.249Z,0.75
2022-10-23T04:01:26.551Z,1.02
2022-10-23T04:04:28.503Z,0.47
2022-10-23T04:07:30.580Z,0.40
2022-10-23T04:10:36.273Z,0.50
2022-10-23T04:13:38.115Z,0.52
2022-10-23T04:16:40.224Z,0.52
2022-10-23T04:19:42.148Z,0.30
2022-10-23T04:22:44.457Z,0.57
2022-10-23T04:28:50.435Z,0.47
2022-10-23T04:31:52.433Z,0.60
2022-10-23T04:34:54.383Z,1.33
2022-10-23T04:37:56.498Z,1.08
2022-10-23T04:40:58.829Z,2.20
2022-10-23T04:44:00.767Z,2.93
2022-10-23T04:47:02.795Z,1.17
2022-10-23T04:50:05.953Z,1.00
2022-10-23T04:53:31.538Z,0.90
2022-10-23T04:56:56.523Z,0.23
2022-10-23T04:59:59.441Z,0.50
2022-10-23T05:03:01.403Z,0.55
2022-10-23T05:06:09.819Z,0.50
2022-10-23T05:09:26.436Z,0.52
2022-10-23T05:12:41.382Z,0.98
2022-10-23T05:18:52.627Z,0.28
2022-10-23T05:21:56.716Z,0.33
2022-10-23T05:25:06.534Z,0.65
2022-10-23T05:28:09.305Z,0.55
2022-10-23T05:31:14.138Z,0.30
2022-10-23T05:34:23.098Z,0.20
2022-10-23T05:37:25.565Z,0.30
2022-10-23T05:40:36.788Z,0.30
2022-10-23T05:43:43.919Z,0.52
2022-10-23T05:47:11.900Z,0.30
2022-10-23T05:50:36.708Z,0.20
2022-10-23T05:54:11.082Z,0.60
2022-10-23T05:57:34.320Z,0.55
2022-10-23T06:00:40.439Z,0.43
2022-10-23T06:04:02.925Z,0.75
2022-10-23T06:07:31.185Z,0.40
2022-10-23T06:10:36.811Z,0.57
2022-10-23T06:13:46.325Z,0.43
2022-10-23T06:16:50.162Z,0.10
2022-10-23T06:19:53.171Z,0.45
2022-10-23T06:22:55.633Z,0.77
2022-10-23T06:26:17.327Z,0.28
2022-10-23T06:29:30.865Z,0.47
2022-10-23T06:32:33.236Z,0.80
2022-10-23T06:35:46.867Z,0.77
2022-10-23T06:38:50.201Z,0.55
2022-10-23T06:41:52.385Z,0.57
2022-10-23T06:45:14.459Z,0.60
2022-10-23T06:48:28.433Z,0.32
2022-10-23T06:51:39.933Z,0.45
2022-10-23T06:54:46.172Z,0.40
2022-10-23T06:57:59.612Z,0.55
2022-10-23T07:01:04.060Z,0.20
2022-10-23T07:04:06.127Z,0.45
2022-10-23T07:07:08.578Z,0.50
2022-10-23T07:10:19.289Z,0.15
2022-10-23T07:13:26.878Z,0.45
2022-10-23T07:16:36.052Z,0.47
2022-10-23T07:19:38.075Z,0.50
2022-10-23T07:22:44.572Z,0.90
2022-10-23T07:25:49.424Z,0.20
2022-10-23T07:28:56.582Z,0.30
2022-10-23T07:32:00.987Z,0.60
2022-10-23T07:35:24.550Z,0.25
2022-10-23T07:38:32.327Z,0.55
2022-10-23T07:41:34.876Z,0.32
2022-10-23T07:44:36.794Z,0.22
2022-10-23T07:47:38.721Z,0.20
2022-10-23T07:50:40.747Z,0.30
2022-10-23T07:53:43.552Z,0.50
2022-10-23T07:57:12.154Z,0.35
2022-10-23T08:00:33.619Z,0.17
2022-10-23T08:03:46.405Z,0.73
2022-10-23T08:06:48.715Z,0.30
2022-10-23T08:09:51.326Z,0.45
2022-10-23T08:12:53.311Z,0.20
2022-10-23T08:16:03.653Z,0.32
2022-10-23T08:19:25.665Z,0.40
2022-10-23T08:22:28.381Z,0.10
2022-10-23T08:25:30.442Z,1.08
2022-10-23T08:28:33.025Z,0.45
2022-10-23T08:31:36.374Z,1.00
2022-10-23T08:35:10.540Z,0.63
2022-10-23T08:38:13.403Z,0.52
2022-10-23T08:41:34.641Z,0.25
2022-10-23T08:45:26.558Z,0.35
2022-10-23T08:48:45.932Z,0.32
2022-10-23T08:52:25.422Z,0.60
2022-10-23T08:55:33.525Z,0.65
2022-10-23T08:58:58.973Z,0.73
2022-10-23T09:02:05.084Z,0.47
2022-10-23T09:05:15.737Z,0.47
2022-10-23T09:08:40.876Z,0.50
2022-10-23T09:12:29.837Z,0.70
2022-10-23T09:15:39.309Z,0.52
2022-10-23T09:18:42.552Z,0.73
2022-10-23T09:21:51.827Z,0.30
2022-10-23T09:24:54.007Z,0.10
2022-10-23T09:28:02.902Z,0.10
2022-10-23T09:31:09.833Z,0.68
2022-10-23T09:34:19.520Z,0.68
2022-10-23T09:37:25.217Z,0.98
2022-10-23T09:40:30.647Z,0.47
2022-10-23T09:43:32.579Z,0.70
2022-10-23T09:46:41.936Z,0.25
2022-10-23T09:49:49.775Z,0.60
2022-10-23T09:52:54.907Z,0.22
2022-10-23T09:56:00.738Z,0.40
2022-10-23T09:59:06.396Z,0.30
2022-10-23T10:02:30.177Z,0.82
2022-10-23T10:06:04.373Z,0.68
2022-10-23T10:09:13.134Z,0.88
2022-10-23T10:12:20.126Z,0.87
2022-10-23T10:15:44.385Z,0.63
2022-10-23T10:18:57.040Z,0.45
2022-10-23T10:22:26.048Z,0.22
2022-10-23T10:25:40.062Z,0.50
2022-10-23T10:29:10.537Z,0.60
2022-10-23T10:32:39.644Z,0.77
2022-10-23T10:35:47.365Z,0.60
2022-10-23T10:38:52.715Z,0.45
2022-10-23T10:42:03.973Z,0.30
2022-10-23T10:45:14.864Z,0.53
2022-10-23T10:48:24.095Z,0.73
2022-10-23T10:51:49.252Z,0.80
2022-10-23T10:55:30.176Z,0.45
2022-10-23T10:58:52.714Z,1.30
2022-10-23T11:02:27.581Z,0.60
2022-10-23T11:05:31.622Z,0.77
2022-10-23T11:08:56.258Z,0.75
2022-10-23T11:11:59.921Z,0.85
2022-10-23T11:15:01.829Z,0.68
2022-10-23T11:18:12.097Z,0.70
2022-10-23T11:21:34.275Z,0.65
2022-10-23T11:25:04.432Z,0.80
2022-10-23T11:28:38.347Z,1.33
2022-10-23T11:31:59.943Z,1.05
2022-10-23T11:35:16.212Z,1.30
2022-10-23T11:38:30.812Z,0.57
2022-10-23T11:41:34.700Z,0.75
2022-10-23T11:44:36.707Z,1.23
2022-10-23T11:47:40.794Z,0.57
2022-10-23T11:50:46.150Z,0.60
2022-10-23T11:53:48.083Z,0.52
2022-10-23T11:57:10.426Z,0.70
2022-10-23T12:00:23.315Z,0.68
2022-10-23T12:03:41.813Z,0.60
2022-10-23T12:06:52.363Z,0.80
2022-10-23T12:09:59.004Z,0.43
2022-10-23T12:13:06.225Z,0.80
2022-10-23T12:16:08.353Z,1.48
2022-10-23T12:19:21.089Z,0.88
2022-10-23T12:22:28.128Z,1.47
2022-10-23T12:26:07.772Z,0.25
2022-10-23T12:29:43.229Z,0.90
2022-10-23T12:33:11.449Z,0.60
2022-10-23T12:36:42.547Z,0.80
2022-10-23T12:39:51.447Z,0.97
2022-10-23T12:42:55.833Z,0.73
2022-10-23T12:46:05.333Z,0.63
2022-10-23T12:49:15.653Z,0.80
2022-10-23T12:52:20.950Z,0.88
2022-10-23T12:55:25.675Z,0.40
2022-10-23T12:58:32.100Z,0.85
2022-10-23T13:01:40.430Z,0.32
2022-10-23T13:04:45.190Z,0.60
2022-10-23T13:07:48.665Z,0.47
2022-10-23T13:10:54.299Z,0.77
2022-10-23T13:13:57.868Z,0.43
2022-10-23T13:17:08.579Z,0.80
2022-10-23T13:20:31.033Z,0.20
2022-10-23T13:23:34.641Z,0.50
2022-10-23T13:26:47.532Z,0.40
2022-10-23T13:29:49.602Z,0.47
2022-10-23T13:32:51.811Z,0.70
2022-10-23T13:36:02.980Z,0.73
2022-10-23T13:39:11.517Z,0.63
2022-10-23T13:42:14.760Z,0.90
2022-10-23T13:45:22.454Z,0.65
2022-10-23T13:48:26.663Z,0.40
2022-10-23T13:51:30.543Z,0.80
2022-10-23T13:54:33.621Z,0.63
2022-10-23T13:57:36.045Z,0.23
2022-10-23T14:00:39.135Z,0.65
2022-10-23T14:03:41.203Z,0.50
2022-10-23T14:06:43.860Z,1.45
2022-10-23T14:09:48.473Z,0.82
2022-10-23T14:12:54.994Z,0.37
2022-10-23T14:15:57.386Z,0.90
2022-10-23T14:18:59.597Z,1.15
2022-10-23T14:22:01.674Z,0.30
2022-10-23T14:25:05.108Z,0.40
2022-10-23T14:28:07.315Z,0.30
2022-10-23T14:31:15.514Z,0.68
2022-10-23T14:34:18.684Z,0.68
2022-10-23T14:37:21.824Z,1.02
2022-10-23T14:40:24.242Z,0.75
2022-10-23T14:43:27.728Z,0.60
2022-10-23T14:46:30.022Z,0.70
2022-10-23T14:49:33.565Z,0.70
2022-10-23T14:52:35.729Z,1.55
2022-10-23T14:55:37.871Z,1.00
2022-10-23T14:58:42.108Z,0.93
2022-10-23T15:01:48.255Z,1.10
2022-10-23T15:04:51.147Z,0.88
2022-10-23T15:07:55.291Z,1.52
2022-10-23T15:11:01.427Z,0.98
2022-10-23T15:14:04.637Z,1.60
2022-10-23T15:17:06.874Z,1.70
2022-10-23T15:20:09.905Z,1.42
2022-10-23T15:23:13.297Z,0.93
2022-10-23T15:26:21.538Z,1.98
2022-10-23T15:29:24.213Z,1.87
2022-10-23T15:32:26.477Z,1.30
2022-10-23T15:38:36.770Z,1.08
2022-10-23T15:41:41.452Z,1.15
2022-10-23T15:44:43.800Z,1.27
2022-10-23T15:47:46.963Z,1.67
2022-10-23T15:50:50.122Z,1.73
2022-10-23T15:53:52.649Z,0.93
2022-10-23T15:56:56.220Z,1.35
2022-10-23T15:59:58.392Z,1.33
2022-10-23T16:03:00.808Z,0.80
2022-10-23T16:06:05.127Z,1.20
2022-10-23T16:09:07.317Z,1.40
2022-10-23T16:12:09.772Z,1.63
2022-10-23T16:15:11.981Z,1.50
2022-10-23T16:18:16.113Z,2.08
2022-10-23T16:21:19.814Z,2.53
2022-10-23T16:24:22.031Z,2.92
2022-10-23T16:27:25.295Z,2.80
2022-10-23T16:30:27.952Z,2.23
2022-10-23T16:33:30.116Z,2.15
2022-10-23T16:36:33.615Z,2.28
2022-10-23T16:39:57.639Z,2.50
2022-10-23T16:43:20.697Z,3.28
2022-10-23T16:46:32.461Z,2.30
2022-10-23T16:49:38.360Z,2.10
2022-10-23T16:52:40.514Z,1.75
2022-10-23T16:55:42.632Z,2.38
2022-10-23T16:58:45.322Z,1.50
2022-10-23T17:01:47.743Z,2.17
2022-10-23T17:04:49.972Z,1.50
2022-10-23T17:07:52.122Z,3.00
2022-10-23T17:11:17.030Z,2.38
2022-10-23T17:14:21.085Z,1.75
2022-10-23T17:17:23.291Z,3.17
2022-10-23T17:20:26.598Z,1.67
2022-10-23T17:23:31.130Z,1.90
2022-10-23T17:26:34.684Z,2.15
2022-10-23T17:29:38.542Z,2.33
2022-10-23T17:32:41.100Z,1.97
2022-10-23T17:35:45.316Z,1.55
2022-10-23T17:38:48.297Z,1.38
2022-10-23T17:41:51.751Z,1.27
2022-10-23T17:44:54.110Z,2.50
2022-10-23T17:47:57.605Z,2.33
2022-10-23T17:51:02.719Z,2.45
2022-10-23T17:54:10.650Z,1.60
2022-10-23T17:57:13.030Z,1.20
2022-10-23T18:00:16.226Z,0.82
2022-10-23T18:03:19.866Z,0.43
2022-10-23T18:06:29.759Z,0.52
2022-10-23T18:09:33.272Z,0.43
2022-10-23T18:12:36.779Z,0.50
2022-10-23T18:15:39.778Z,0.77
2022-10-23T18:18:44.598Z,0.37
2022-10-23T18:21:48.074Z,0.30
2022-10-23T18:24:50.271Z,0.52
2022-10-23T18:27:52.527Z,0.60
2022-10-23T18:30:57.304Z,0.95
2022-10-23T18:34:04.107Z,0.50
2022-10-23T18:37:06.333Z,0.30
2022-10-23T18:40:08.948Z,0.40
2022-10-23T18:43:15.156Z,0.20
2022-10-23T18:46:22.504Z,0.75
2022-10-23T18:49:27.755Z,0.40
2022-10-23T18:52:30.149Z,0.50
2022-10-23T18:58:39.732Z,0.25
2022-10-23T19:01:43.226Z,0.50
2022-10-23T19:04:45.565Z,0.43
2022-10-23T19:07:48.573Z,0.22
2022-10-23T19:10:52.682Z,0.40
2022-10-23T19:13:55.922Z,0.47
2022-10-23T19:17:05.032Z,0.60
2022-10-23T19:20:14.822Z,0.60
2022-10-23T19:23:17.075Z,0.45
2022-10-23T19:26:19.529Z,1.73
2022-10-23T19:29:26.644Z,0.60
2022-10-23T19:32:29.404Z,0.85
2022-10-23T19:35:31.609Z,0.83
2022-10-23T19:38:35.129Z,0.40
2022-10-23T19:41:37.396Z,0.70
2022-10-23T19:44:39.533Z,0.93
2022-10-23T19:47:42.930Z,0.80
2022-10-23T19:50:45.487Z,1.87
2022-10-23T19:53:47.742Z,0.65
2022-10-23T19:56:51.260Z,0.93
2022-10-23T19:59:53.907Z,1.13
2022-10-23T20:02:56.168Z,0.60
2022-10-23T20:05:58.581Z,0.57
2022-10-23T20:09:10.058Z,1.20
2022-10-23T20:12:12.378Z,0.38
2022-10-23T20:15:14.752Z,1.13
2022-10-23T20:18:17.422Z,1.35
2022-10-23T20:21:20.377Z,0.83
2022-10-23T20:24:22.806Z,0.57
2022-10-23T20:27:25.405Z,0.50
2022-10-23T20:30:27.827Z,1.00
2022-10-23T20:33:29.943Z,0.70
2022-10-23T20:36:46.710Z,1.03
2022-10-23T20:39:49.677Z,0.45
2022-10-23T20:42:51.825Z,0.30
2022-10-23T20:45:54.105Z,0.20
2022-10-23T20:48:56.472Z,0.52
2022-10-23T20:51:58.627Z,0.60
2022-10-23T20:55:00.674Z,0.60
2022-10-23T20:58:02.638Z,0.77
2022-10-23T21:01:06.155Z,0.52
2022-10-23T21:04:08.168Z,0.30
2022-10-23T21:07:11.290Z,0.67
2022-10-23T21:10:13.521Z,0.80
2022-10-23T21:13:15.407Z,0.40
2022-10-23T21:16:27.661Z,0.57
2022-10-23T21:19:30.842Z,0.38
2022-10-23T21:22:32.850Z,0.13
2022-10-23T21:25:38.546Z,0.35
2022-10-23T21:28:47.360Z,0.75
2022-10-23T21:32:01.130Z,0.68
2022-10-23T21:35:03.261Z,0.40
2022-10-23T21:38:05.274Z,0.60
2022-10-23T21:41:08.863Z,0.40
2022-10-23T21:44:12.684Z,0.35
2022-10-23T21:47:14.523Z,0.45
2022-10-23T21:50:16.445Z,1.05
2022-10-23T21:53:18.291Z,0.70
2022-10-23T21:56:32.587Z,0.80
2022-10-23T21:59:36.112Z,0.75
2022-10-23T22:02:38.142Z,0.25
2022-10-23T22:05:40.080Z,0.28
2022-10-23T22:08:42.167Z,0.90
2022-10-23T22:11:44.053Z,0.75
2022-10-23T22:14:45.905Z,0.85
2022-10-23T22:17:47.782Z,0.85
2022-10-23T22:20:49.864Z,0.80
2022-10-23T22:23:54.782Z,0.30
2022-10-23T22:26:57.565Z,0.50
2022-10-23T22:29:59.453Z,1.05
2022-10-23T22:33:01.323Z,0.55
2022-10-23T22:36:03.687Z,0.28
2022-10-23T22:39:07.427Z,0.67
2022-10-23T22:42:09.475Z,0.80
2022-10-23T22:45:11.332Z,1.08
2022-10-23T22:48:13.213Z,0.60
2022-10-23T22:51:17.544Z,0.35
2022-10-23T22:54:19.473Z,0.40
2022-10-23T22:57:21.503Z,0.22
2022-10-23T23:00:23.562Z,0.30
2022-10-23T23:03:25.540Z,0.85
2022-10-23T23:06:28.107Z,0.73
2022-10-23T23:09:30.568Z,0.10
2022-10-23T23:12:32.446Z,0.40
2022-10-23T23:15:39.333Z,0.40
2022-10-23T23:18:41.235Z,0.22
2022-10-23T23:21:43.100Z,0.50
2022-10-23T23:24:45.040Z,0.30
2022-10-23T23:27:47.211Z,0.60
2022-10-23T23:30:49.468Z,0.50
2022-10-23T23:33:53.491Z,0.40
2022-10-23T23:36:56.587Z,0.70
2022-10-23T23:39:58.516Z,0.30
2022-10-23T23:43:00.674Z,1.08
2022-10-23T23:46:02.525Z,0.40
2022-10-23T23:49:04.489Z,0.60
2022-10-23T23:52:06.398Z,0.50
2022-10-23T23:55:08.560Z,0.53
2022-10-23T23:58:11.671Z,0.38
